Time;durP1;ratioP1;P1;durP2;ratioP2;P2;SDS_P1;SDS_P2;PMS_P1;PMS_P2;Temp;Humidity;BMP_temperature;BMP_pressure;BME280_temperature;BME280_humidity;BME280_pressure;Samples;Min_cycle;Max_cycle;Signal;HPM_P1;HPM_P2
2023/04/10 00:00:20;;;;;;;30.90;22.90;;;;;;;3.51;98.16;97382.05;109515;1270;22536;-89
2023/04/10 00:03:12;;;;;;;34.00;26.00;;;;;;;3.52;98.27;97379.14;109523;1270;22513;-89
2023/04/10 00:05:43;;;;;;;31.70;24.10;;;;;;;3.47;98.13;97373.83;109558;1264;24625;-88
2023/04/10 00:08:14;;;;;;;36.60;27.40;;;;;;;3.40;98.03;97375.49;109436;1270;46826;-88
2023/04/10 00:10:45;;;;;;;33.00;24.70;;;;;;;3.38;98.20;97373.80;109491;1270;22563;-88
2023/04/10 00:13:16;;;;;;;33.90;25.10;;;;;;;3.39;98.42;97368.40;109492;1270;22544;-88
2023/04/10 00:15:48;;;;;;;31.60;25.80;;;;;;;3.44;98.56;97368.65;109453;1270;22575;-88
2023/04/10 00:18:19;;;;;;;34.10;26.40;;;;;;;3.46;98.49;97369.02;109420;1270;37944;-88
2023/04/10 00:20:50;;;;;;;34.10;26.40;;;;;;;3.46;98.48;97365.73;109359;1269;22796;-89
2023/04/10 00:23:21;;;;;;;37.50;27.90;;;;;;;3.42;98.35;97364.15;109387;1270;22540;-89
2023/04/10 00:25:52;;;;;;;33.50;26.60;;;;;;;3.41;98.33;97362.70;109443;1270;22523;-89
2023/04/10 00:28:23;;;;;;;31.80;25.80;;;;;;;3.43;98.67;97363.21;109323;1270;87197;-89
2023/04/10 00:30:54;;;;;;;35.40;26.60;;;;;;;3.41;98.61;97360.09;109499;1270;22548;-89
2023/04/10 00:33:25;;;;;;;34.90;26.70;;;;;;;3.39;98.61;97361.23;109473;1268;22515;-89
2023/04/10 00:35:56;;;;;;;33.70;25.60;;;;;;;3.38;98.52;97360.95;109541;1270;22528;-88
2023/04/10 00:38:27;;;;;;;34.80;25.30;;;;;;;3.35;98.86;97363.27;109412;1270;38031;-88
2023/04/10 00:40:59;;;;;;;33.00;26.80;;;;;;;3.33;98.75;97364.82;109444;1264;23287;-89
2023/04/10 00:43:31;;;;;;;36.30;28.10;;;;;;;3.32;98.77;97366.30;109387;1270;22543;-88
2023/04/10 00:46:02;;;;;;;34.20;27.50;;;;;;;3.32;98.93;97365.23;109418;1270;22554;-88
2023/04/10 00:48:33;;;;;;;36.10;27.40;;;;;;;3.30;98.92;97368.95;109395;1270;108034;-88
2023/04/10 00:51:06;;;;;;;38.20;28.20;;;;;;;3.29;99.06;97365.13;109434;1263;22518;-89
2023/04/10 00:53:39;;;;;;;39.80;30.60;;;;;;;3.31;99.31;97364.55;109499;1267;22511;-88
2023/04/10 00:56:11;;;;;;;39.30;29.50;;;;;;;3.32;99.35;97362.80;109340;1270;22530;-89
2023/04/10 00:58:42;;;;;;;42.40;31.70;;;;;;;3.33;99.46;97368.35;109153;1271;98131;-88
2023/04/10 01:01:14;;;;;;;38.30;29.40;;;;;;;3.36;99.41;97366.08;109288;1270;23079;-89
2023/04/10 01:03:45;;;;;;;38.60;30.60;;;;;;;3.37;99.44;97366.42;109322;1271;22529;-89
2023/04/10 01:06:26;;;;;;;37.60;29.70;;;;;;;3.36;99.44;97363.73;109411;1270;22592;-89
2023/04/10 01:09:16;;;;;;;40.70;29.70;;;;;;;3.36;99.38;97360.21;109283;1248;54443;-89
2023/04/10 01:11:54;;;;;;;31.40;22.80;;;;;;;3.37;99.48;97356.55;109468;1267;25505;-88
2023/04/10 01:14:33;;;;;;;41.00;29.60;;;;;;;3.36;99.59;97351.40;109489;1267;22513;-89
2023/04/10 01:17:11;;;;;;;39.30;30.70;;;;;;;3.41;99.93;97351.63;109489;1270;22662;-89
2023/04/10 01:20:02;;;;;;;38.30;29.50;;;;;;;3.41;99.77;97347.90;109645;1267;60972;-89
2023/04/10 01:22:41;;;;;;;41.30;29.90;;;;;;;3.40;99.89;97346.46;109550;1269;22523;-88
2023/04/10 01:25:27;;;;;;;38.30;28.50;;;;;;;3.41;99.99;97347.50;109571;1267;23285;-89
2023/04/10 01:28:13;;;;;;;35.60;25.80;;;;;;;3.43;100.00;97344.10;109377;1267;57896;-89
2023/04/10 01:30:50;;;;;;;40.10;30.60;;;;;;;3.52;100.00;97346.64;109511;1269;22546;-89
2023/04/10 01:33:26;;;;;;;38.50;29.60;;;;;;;3.53;100.00;97345.43;109466;1270;22975;-88
2023/04/10 01:36:03;;;;;;;39.70;26.90;;;;;;;3.53;100.00;97340.27;109504;1270;22540;-89
2023/04/10 01:38:36;;;;;;;44.40;30.40;;;;;;;3.55;100.00;97342.17;109581;1269;31168;-88
2023/04/10 01:41:08;;;;;;;43.10;32.50;;;;;;;3.56;100.00;97343.66;109464;1264;22597;-89
2023/04/10 01:43:42;;;;;;;43.80;32.50;;;;;;;3.59;100.00;97345.89;109574;1269;23494;-89
2023/04/10 01:46:14;;;;;;;41.50;32.10;;;;;;;3.63;100.00;97344.52;109478;1270;22545;-89
2023/04/10 01:48:46;;;;;;;41.20;29.70;;;;;;;3.70;100.00;97345.08;109299;1269;101026;-88
2023/04/10 01:51:18;;;;;;;39.00;30.90;;;;;;;3.76;100.00;97346.81;109498;1264;22506;-88
2023/04/10 01:53:50;;;;;;;38.90;30.50;;;;;;;3.78;100.00;97346.52;109569;1269;22510;-89
2023/04/10 01:56:22;;;;;;;41.20;31.80;;;;;;;3.79;100.00;97344.13;109596;1269;23000;-88
2023/04/10 01:58:53;;;;;;;43.90;31.30;;;;;;;3.78;100.00;97344.17;109368;1270;56467;-88
2023/04/10 02:01:24;;;;;;;41.40;29.20;;;;;;;3.75;100.00;97343.44;109512;1270;22539;-89
2023/04/10 02:03:55;;;;;;;37.40;29.90;;;;;;;3.74;100.00;97345.88;109423;1270;22519;-88
2023/04/10 02:06:34;;;;;;;41.30;30.90;;;;;;;3.70;100.00;97341.61;109418;1269;22547;-88
2023/04/10 02:09:10;;;;;;;37.60;28.90;;;;;;;3.65;100.00;97344.17;109386;1263;91492;-88
2023/04/10 02:11:47;;;;;;;40.70;30.30;;;;;;;3.62;100.00;97347.92;109418;1264;22548;-89
2023/04/10 02:14:23;;;;;;;38.80;31.20;;;;;;;3.62;100.00;97345.13;109531;1264;22981;-88
2023/04/10 02:16:56;;;;;;;41.80;31.30;;;;;;;3.64;100.00;97350.92;109589;1264;22617;-89
2023/04/10 02:19:29;;;;;;;43.20;29.90;;;;;;;3.67;100.00;97349.90;109429;1266;59931;-89
2023/04/10 02:22:01;;;;;;;41.50;32.00;;;;;;;3.72;100.00;97347.83;109484;1247;25301;-89
2023/04/10 02:24:35;;;;;;;38.10;30.20;;;;;;;3.76;100.00;97348.02;109391;1270;22663;-88
2023/04/10 02:27:06;;;;;;;38.60;29.70;;;;;;;3.77;100.00;97348.38;109577;1270;22576;-88
2023/04/10 02:29:37;;;;;;;38.90;28.80;;;;;;;3.77;100.00;97347.13;109483;1269;55429;-89
2023/04/10 02:32:08;;;;;;;42.00;30.30;;;;;;;3.80;100.00;97346.80;109458;1270;23257;-89
2023/04/10 02:34:42;;;;;;;39.90;29.70;;;;;;;3.82;100.00;97345.04;109493;1263;22519;-88
2023/04/10 02:37:13;;;;;;;39.10;31.50;;;;;;;3.80;100.00;97340.41;109502;1269;22561;-89
2023/04/10 02:39:44;;;;;;;39.00;30.80;;;;;;;3.77;100.00;97331.27;109454;1264;56350;-89
2023/04/10 02:42:16;;;;;;;41.00;30.80;;;;;;;3.75;100.00;97333.88;109463;1270;22562;-88
2023/04/10 02:44:47;;;;;;;41.10;29.70;;;;;;;3.75;100.00;97343.55;109579;1264;26222;-88
2023/04/10 02:47:18;;;;;;;40.30;31.40;;;;;;;3.77;100.00;97340.83;109477;1269;22593;-89
2023/04/10 02:49:49;;;;;;;42.10;30.50;;;;;;;3.79;100.00;97344.33;109475;1270;22566;-88
2023/04/10 02:52:21;;;;;;;44.90;32.50;;;;;;;3.79;100.00;97345.74;109473;1264;22639;-88
2023/04/10 02:54:53;;;;;;;41.30;28.40;;;;;;;3.77;100.00;97347.85;109472;1270;23837;-88
2023/04/10 02:57:25;;;;;;;40.30;28.90;;;;;;;3.77;100.00;97346.44;109435;1263;69635;-87
2023/04/10 02:59:59;;;;;;;44.00;30.80;;;;;;;3.77;100.00;97343.23;109542;1269;22549;-88
2023/04/10 03:02:30;;;;;;;30.90;20.30;;;;;;;3.76;100.00;97344.36;109465;1270;22584;-88
2023/04/10 03:05:02;;;;;;;40.80;30.60;;;;;;;3.78;100.00;97341.84;109469;1270;25307;-89
2023/04/10 03:07:33;;;;;;;40.80;27.60;;;;;;;3.79;100.00;97338.98;108069;1260;1811453;-88
2023/04/10 03:10:05;;;;;;;31.30;21.10;;;;;;;3.81;100.00;97338.08;109502;1270;24270;-88
2023/04/10 03:12:36;;;;;;;36.20;24.40;;;;;;;3.84;100.00;97335.75;109482;1270;22633;-88
2023/04/10 03:15:09;;;;;;;39.80;30.70;;;;;;;3.84;100.00;97336.59;109410;1270;24212;-88
2023/04/10 03:17:40;;;;;;;45.80;30.10;;;;;;;3.87;100.00;97333.69;109375;1264;46956;-88
2023/04/10 03:20:14;;;;;;;43.30;30.60;;;;;;;3.93;100.00;97332.21;109440;1270;22527;-88
2023/04/10 03:22:45;;;;;;;39.30;27.30;;;;;;;3.96;100.00;97330.29;109435;1270;22637;-88
2023/04/10 03:25:16;;;;;;;41.50;29.80;;;;;;;3.97;100.00;97331.20;109479;1270;24261;-87
2023/04/10 03:27:47;;;;;;;39.40;29.70;;;;;;;3.98;100.00;97325.83;109432;1270;46561;-87
2023/04/10 03:30:19;;;;;;;37.10;27.30;;;;;;;4.01;100.00;97327.52;109458;1270;22512;-88
2023/04/10 03:32:50;;;;;;;39.20;29.20;;;;;;;4.03;100.00;97328.95;109498;1270;22779;-87
2023/04/10 03:35:22;;;;;;;39.10;27.80;;;;;;;4.06;100.00;97328.39;109475;1270;25313;-88
2023/04/10 03:37:53;;;;;;;42.80;30.70;;;;;;;4.10;100.00;97325.90;109454;1270;34400;-88
2023/04/10 03:40:24;;;;;;;39.80;30.60;;;;;;;4.15;100.00;97327.89;109422;1270;22535;-87
2023/04/10 03:42:55;;;;;;;38.90;29.20;;;;;;;4.20;100.00;97327.55;109488;1270;25744;-88
2023/04/10 03:45:26;;;;;;;41.70;31.80;;;;;;;4.23;100.00;97325.46;109612;1269;23980;-88
2023/04/10 03:47:58;;;;;;;41.40;28.40;;;;;;;4.26;100.00;97323.83;109383;1265;51352;-87
2023/04/10 03:50:29;;;;;;;37.60;26.30;;;;;;;4.29;100.00;97325.48;109445;1264;22511;-87
2023/04/10 03:53:02;;;;;;;42.20;31.20;;;;;;;4.28;100.00;97325.98;109532;1264;22544;-88
2023/04/10 03:55:33;;;;;;;40.50;29.40;;;;;;;4.26;100.00;97325.14;109436;1262;22524;-88
2023/04/10 03:58:04;;;;;;;43.10;31.90;;;;;;;4.25;100.00;97332.36;109255;1264;52084;-87
2023/04/10 04:00:35;;;;;;;38.90;29.40;;;;;;;4.22;100.00;97333.58;109291;1271;22554;-88
2023/04/10 04:03:06;;;;;;;36.70;27.10;;;;;;;4.22;100.00;97334.68;109300;1271;24252;-87
2023/04/10 04:05:37;;;;;;;40.20;30.40;;;;;;;4.21;100.00;97336.86;109331;1264;22569;-87
2023/04/10 04:08:09;;;;;;;40.30;26.80;;;;;;;4.22;100.00;97335.88;109225;1271;41285;-87
2023/04/10 04:10:40;;;;;;;41.40;30.80;;;;;;;4.23;100.00;97338.80;109270;1268;22530;-87
2023/04/10 04:13:11;;;;;;;41.30;30.60;;;;;;;4.23;100.00;97333.51;109208;1271;22929;-87
2023/04/10 04:15:42;;;;;;;39.70;30.80;;;;;;;4.23;100.00;97333.98;109309;1268;22535;-88
2023/04/10 04:18:13;;;;;;;42.90;32.60;;;;;;;4.23;100.00;97338.76;109326;1264;72090;-88
2023/04/10 04:20:44;;;;;;;42.30;29.60;;;;;;;4.24;100.00;97339.44;109434;1270;22629;-87
2023/04/10 04:23:16;;;;;;;42.30;31.90;;;;;;;4.27;100.00;97339.96;109601;1269;22678;-87
2023/04/10 04:25:51;;;;;;;45.70;32.60;;;;;;;4.27;100.00;97341.81;109472;1270;22563;-87
2023/04/10 04:28:22;;;;;;;46.50;32.80;;;;;;;4.28;100.00;97347.41;109441;1267;45028;-86
2023/04/10 04:30:53;;;;;;;40.10;30.60;;;;;;;4.29;100.00;97346.06;109445;1263;23177;-88
2023/04/10 04:33:26;;;;;;;40.00;30.30;;;;;;;4.29;100.00;97352.52;109438;1269;22539;-87
2023/04/10 04:35:58;;;;;;;40.90;30.80;;;;;;;4.29;100.00;97346.42;109541;1269;23675;-88
2023/04/10 04:38:29;;;;;;;40.70;30.80;;;;;;;4.28;100.00;97350.04;109372;1270;60321;-88
2023/04/10 04:41:00;;;;;;;41.20;31.30;;;;;;;4.27;100.00;97355.42;109547;1269;22515;-87
2023/04/10 04:43:31;;;;;;;43.90;31.70;;;;;;;4.27;100.00;97360.80;109478;1270;22532;-87
2023/04/10 04:46:02;;;;;;;39.10;28.60;;;;;;;4.27;100.00;97356.35;109503;1265;22528;-87
2023/04/10 04:48:35;;;;;;;38.90;29.80;;;;;;;4.28;100.00;97352.54;109529;1264;37905;-88
2023/04/10 04:51:08;;;;;;;38.00;28.80;;;;;;;4.29;100.00;97352.23;109493;1270;22638;-87
2023/04/10 04:53:39;;;;;;;37.00;25.60;;;;;;;4.27;100.00;97350.78;109518;1264;22528;-87
2023/04/10 04:56:11;;;;;;;45.30;32.60;;;;;;;4.24;100.00;97357.07;109519;1270;24212;-88
2023/04/10 04:58:42;;;;;;;41.20;29.70;;;;;;;4.26;100.00;97357.86;109487;1258;47005;-89
2023/04/10 05:01:13;;;;;;;41.00;30.10;;;;;;;4.27;100.00;97355.95;109502;1269;22555;-88
2023/04/10 05:03:44;;;;;;;43.70;31.50;;;;;;;4.28;100.00;97360.21;109491;1269;22540;-89
2023/04/10 05:06:17;;;;;;;43.30;32.80;;;;;;;4.30;100.00;97366.05;109393;1270;23017;-88
2023/04/10 05:08:48;;;;;;;38.50;28.70;;;;;;;4.33;100.00;97368.31;109360;1270;39234;-89
2023/04/10 05:11:20;;;;;;;43.40;32.10;;;;;;;4.33;100.00;97365.19;109401;1270;22526;-88
2023/04/10 05:13:52;;;;;;;40.50;29.30;;;;;;;4.34;100.00;97364.77;109465;1262;23166;-88
2023/04/10 05:16:23;;;;;;;42.20;31.40;;;;;;;4.34;100.00;97368.56;109454;1270;22512;-88
2023/04/10 05:18:54;;;;;;;41.40;29.70;;;;;;;4.35;100.00;97369.36;109392;1264;73141;-87
2023/04/10 05:21:27;;;;;;;42.30;28.80;;;;;;;4.35;100.00;97379.87;109425;1270;24222;-87
2023/04/10 05:23:59;;;;;;;39.30;29.50;;;;;;;4.35;100.00;97378.45;109386;1270;22528;-88
2023/04/10 05:26:30;;;;;;;45.40;30.90;;;;;;;4.35;100.00;97375.14;109434;1270;22530;-88
2023/04/10 05:29:01;;;;;;;32.80;22.40;;;;;;;4.34;100.00;97372.13;109398;1270;42459;-89
2023/04/10 05:31:32;;;;;;;41.00;30.30;;;;;;;4.33;100.00;97372.90;109510;1267;22683;-88
2023/04/10 05:34:03;;;;;;;40.70;30.20;;;;;;;4.34;100.00;97376.08;109437;1270;25393;-88
2023/04/10 05:36:35;;;;;;;43.10;31.90;;;;;;;4.35;100.00;97378.61;109426;1264;23257;-88
2023/04/10 05:39:06;;;;;;;41.30;30.20;;;;;;;4.35;100.00;97377.92;109356;1263;47785;-88
2023/04/10 05:41:37;;;;;;;40.20;30.20;;;;;;;4.35;100.00;97374.36;109533;1247;22543;-88
2023/04/10 05:44:08;;;;;;;41.50;29.50;;;;;;;4.37;100.00;97377.92;109527;1269;22527;-88
2023/04/10 05:46:40;;;;;;;40.60;30.50;;;;;;;4.38;100.00;97379.16;109545;1264;23002;-87
2023/04/10 05:49:11;;;;;;;39.50;29.40;;;;;;;4.41;100.00;97381.02;109411;1270;61037;-87
2023/04/10 05:51:42;;;;;;;39.20;27.20;;;;;;;4.43;100.00;97381.16;109472;1267;23280;-87
2023/04/10 05:54:13;;;;;;;42.80;31.40;;;;;;;4.42;100.00;97379.11;109347;1270;22524;-87
2023/04/10 05:56:45;;;;;;;41.00;30.70;;;;;;;4.43;100.00;97380.59;109560;1269;22617;-87
2023/04/10 05:59:16;;;;;;;44.00;31.60;;;;;;;4.44;100.00;97379.52;109494;1264;76341;-86
2023/04/10 06:01:47;;;;;;;43.60;30.80;;;;;;;4.45;100.00;97383.11;109341;1265;22515;-87
2023/04/10 06:04:20;;;;;;;43.80;32.90;;;;;;;4.45;100.00;97385.05;109421;1270;25359;-87
2023/04/10 06:06:51;;;;;;;43.40;31.40;;;;;;;4.46;100.00;97385.88;109367;1270;22543;-88
2023/04/10 06:09:22;;;;;;;39.50;30.00;;;;;;;4.47;100.00;97385.05;109388;1270;44619;-87
2023/04/10 06:11:53;;;;;;;39.50;31.30;;;;;;;4.48;100.00;97382.55;109414;1270;26447;-88
2023/04/10 06:14:25;;;;;;;43.20;32.30;;;;;;;4.46;100.00;97384.51;109462;1270;23855;-88
2023/04/10 06:16:56;;;;;;;36.40;28.30;;;;;;;4.44;100.00;97386.39;109491;1264;22527;-88
2023/04/10 06:19:27;;;;;;;41.00;31.20;;;;;;;4.42;100.00;97386.75;109369;1260;50665;-88
2023/04/10 06:21:59;;;;;;;41.40;31.80;;;;;;;4.42;100.00;97387.35;109357;1270;25352;-87
2023/04/10 06:24:31;;;;;;;42.50;31.80;;;;;;;4.42;100.00;97385.94;109393;1262;22528;-87
2023/04/10 06:27:04;;;;;;;43.70;31.50;;;;;;;4.45;100.00;97392.80;109494;1269;22562;-87
2023/04/10 06:29:35;;;;;;;41.60;32.40;;;;;;;4.45;100.00;97389.84;109404;1270;64308;-88
2023/04/10 06:32:06;;;;;;;45.00;32.80;;;;;;;4.48;100.00;97390.27;109451;1270;22518;-88
2023/04/10 06:34:37;;;;;;;44.90;32.10;;;;;;;4.50;100.00;97391.01;109499;1265;22638;-87
2023/04/10 06:37:09;;;;;;;41.00;31.40;;;;;;;4.52;100.00;97395.48;109415;1270;22528;-86
2023/04/10 06:39:40;;;;;;;39.30;30.50;;;;;;;4.52;100.00;97391.41;109432;1270;49041;-87
2023/04/10 06:42:11;;;;;;;42.00;31.10;;;;;;;4.52;100.00;97393.06;109460;1270;24219;-86
2023/04/10 06:44:44;;;;;;;41.20;29.90;;;;;;;4.52;100.00;97392.50;109449;1266;24414;-88
2023/04/10 06:47:17;;;;;;;43.40;31.10;;;;;;;4.51;100.00;97395.09;109464;1270;23416;-87
2023/04/10 06:49:48;;;;;;;41.50;29.90;;;;;;;4.52;100.00;97397.22;109406;1269;49044;-86
2023/04/10 06:52:20;;;;;;;41.00;29.50;;;;;;;4.54;100.00;97399.13;109500;1270;22560;-86
2023/04/10 06:54:51;;;;;;;40.10;30.00;;;;;;;4.56;100.00;97402.91;109469;1270;22522;-87
2023/04/10 06:57:22;;;;;;;41.10;28.50;;;;;;;4.57;100.00;97399.05;109498;1270;22529;-86
2023/04/10 06:59:53;;;;;;;42.40;32.10;;;;;;;4.57;100.00;97397.89;109477;1270;22664;-86
2023/04/10 07:02:25;;;;;;;41.50;31.40;;;;;;;4.59;100.00;97397.84;109319;1271;23193;-86
2023/04/10 07:04:56;;;;;;;38.90;29.10;;;;;;;4.61;100.00;97402.27;109392;1270;22528;-87
2023/04/10 07:07:28;;;;;;;39.20;29.80;;;;;;;4.64;100.00;97404.60;109319;1265;84424;-85
2023/04/10 07:09:59;;;;;;;42.00;31.70;;;;;;;4.68;100.00;97402.92;109459;1265;22566;-87
2023/04/10 07:12:30;;;;;;;36.70;27.90;;;;;;;4.72;100.00;97402.71;109478;1269;22562;-86
2023/04/10 07:15:04;;;;;;;40.30;31.40;;;;;;;4.75;100.00;97406.58;109461;1270;26671;-86
2023/04/10 07:17:36;;;;;;;40.00;29.10;;;;;;;4.75;100.00;97410.45;109429;1261;45706;-86
2023/04/10 07:20:09;;;;;;;40.10;27.80;;;;;;;4.75;100.00;97407.95;109481;1267;22532;-85
2023/04/10 07:22:40;;;;;;;43.20;29.60;;;;;;;4.76;100.00;97407.25;109461;1270;22644;-86
2023/04/10 07:25:13;;;;;;;42.50;30.00;;;;;;;4.77;100.00;97404.73;109491;1265;22546;-85
2023/04/10 07:27:44;;;;;;;43.70;30.00;;;;;;;4.82;100.00;97400.45;109453;1270;38058;-86
2023/04/10 07:30:15;;;;;;;44.70;30.30;;;;;;;4.84;100.00;97398.52;109450;1269;22586;-86
2023/04/10 07:32:47;;;;;;;45.40;29.80;;;;;;;4.88;100.00;97404.81;109455;1261;22561;-86
2023/04/10 07:35:19;;;;;;;45.90;31.60;;;;;;;4.91;100.00;97402.73;109630;1269;25336;-85
2023/04/10 07:37:51;;;;;;;47.10;32.90;;;;;;;4.92;100.00;97406.93;109431;1270;66365;-85
2023/04/10 07:40:22;;;;;;;43.00;30.30;;;;;;;4.93;100.00;97404.83;109679;1270;22562;-86
2023/04/10 07:42:54;;;;;;;44.40;28.90;;;;;;;4.97;100.00;97407.23;109454;1270;22560;-85
2023/04/10 07:45:26;;;;;;;45.40;31.10;;;;;;;4.99;100.00;97408.11;109634;1269;22688;-85
2023/04/10 07:47:58;;;;;;;44.90;29.10;;;;;;;4.98;100.00;97407.35;109470;1270;59376;-86
2023/04/10 07:50:30;;;;;;;44.10;31.00;;;;;;;4.99;100.00;97403.80;109478;1270;22550;-86
2023/04/10 07:53:06;;;;;;;45.10;29.00;;;;;;;5.04;100.00;97405.52;109524;1270;22522;-85
2023/04/10 07:55:41;;;;;;;48.20;31.10;;;;;;;5.07;100.00;97405.08;109495;1264;22526;-86
2023/04/10 07:58:15;;;;;;;47.80;31.20;;;;;;;5.08;100.00;97404.30;109395;1270;62607;-85
2023/04/10 08:00:46;;;;;;;49.40;31.80;;;;;;;5.13;100.00;97405.17;109370;1267;22602;-85
2023/04/10 08:03:18;;;;;;;46.50;31.90;;;;;;;5.16;100.00;97408.02;109469;1270;25284;-85
2023/04/10 08:05:50;;;;;;;47.50;29.20;;;;;;;5.18;100.00;97405.08;109397;1270;24401;-85
2023/04/10 08:08:22;;;;;;;46.70;31.60;;;;;;;5.24;100.00;97406.05;109544;1269;53057;-85
2023/04/10 08:10:53;;;;;;;47.50;32.10;;;;;;;5.32;100.00;97408.24;109491;1270;22533;-86
2023/04/10 08:13:24;;;;;;;43.40;29.40;;;;;;;5.36;100.00;97407.98;109501;1270;22819;-86
2023/04/10 08:15:58;;;;;;;44.10;29.40;;;;;;;5.41;100.00;97412.56;109454;1270;22547;-85
2023/04/10 08:18:29;;;;;;;41.30;29.20;;;;;;;5.46;100.00;97411.55;109442;1266;46873;-86
2023/04/10 08:21:01;;;;;;;43.60;30.00;;;;;;;5.48;100.00;97412.89;109657;1266;22583;-86
2023/04/10 08:23:33;;;;;;;49.00;31.80;;;;;;;5.49;100.00;97409.70;109492;1262;24311;-85
2023/04/10 08:26:05;;;;;;;50.40;34.00;;;;;;;5.46;100.00;97409.89;109482;1267;22513;-85
2023/04/10 08:28:38;;;;;;;47.80;33.20;;;;;;;5.43;100.00;97408.81;109439;1270;56746;-85
2023/04/10 08:31:10;;;;;;;45.60;31.20;;;;;;;5.42;100.00;97403.38;109509;1267;23161;-85
2023/04/10 08:33:42;;;;;;;47.00;33.90;;;;;;;5.45;100.00;97399.96;109437;1269;221438;-85
2023/04/10 08:36:15;;;;;;;50.70;33.90;;;;;;;5.50;100.00;97405.27;109462;1263;25629;-85
2023/04/10 08:38:48;;;;;;;51.20;31.90;;;;;;;5.58;100.00;97403.71;109418;1270;122808;-85
2023/04/10 08:41:21;;;;;;;53.20;35.10;;;;;;;5.64;100.00;97401.20;109442;1269;23604;-85
2023/04/10 08:43:53;;;;;;;50.40;34.30;;;;;;;5.63;100.00;97403.52;109644;1265;22603;-85
2023/04/10 08:46:27;;;;;;;55.50;36.50;;;;;;;5.57;100.00;97406.48;109579;1262;22515;-85
2023/04/10 08:49:04;;;;;;;54.50;35.50;;;;;;;5.55;100.00;97404.54;109425;1270;44315;-86
2023/04/10 08:51:40;;;;;;;53.60;34.30;;;;;;;5.57;100.00;97405.73;109526;1270;22536;-85
2023/04/10 08:54:18;;;;;;;49.70;34.00;;;;;;;5.58;100.00;97401.61;109526;1270;22547;-85
2023/04/10 08:56:53;;;;;;;48.60;34.20;;;;;;;5.62;100.00;97400.05;109481;1262;22519;-85
2023/04/10 08:59:26;;;;;;;44.20;31.40;;;;;;;5.69;100.00;97402.62;109520;1267;51307;-85
2023/04/10 09:01:59;;;;;;;48.80;31.80;;;;;;;5.78;100.00;97403.61;109535;1248;22522;-85
2023/04/10 09:04:32;;;;;;;46.20;32.10;;;;;;;5.85;100.00;97397.98;109514;1270;25461;-86
2023/04/10 09:07:04;;;;;;;48.50;34.20;;;;;;;5.92;100.00;97398.91;109543;1265;22582;-85
2023/04/10 09:09:36;;;;;;;46.90;30.90;;;;;;;5.96;100.00;97398.16;109438;1263;57876;-85
2023/04/10 09:12:08;;;;;;;51.40;35.40;;;;;;;5.96;100.00;97400.01;109485;1270;22659;-85
2023/04/10 09:14:40;;;;;;;52.80;34.50;;;;;;;5.86;100.00;97403.17;109493;1270;22541;-86
2023/04/10 09:17:18;;;;;;;49.00;32.90;;;;;;;5.78;100.00;97403.57;109507;1265;22667;-86
2023/04/10 09:19:54;;;;;;;51.70;34.70;;;;;;;5.73;100.00;97399.55;109437;1264;28812;-85
2023/04/10 09:22:34;;;;;;;49.60;32.70;;;;;;;5.74;100.00;97395.25;109492;1269;22533;-85
2023/04/10 09:25:27;;;;;;;52.20;32.50;;;;;;;5.77;100.00;97391.97;109496;1270;22701;-85
2023/04/10 09:28:05;;;;;;;48.90;32.70;;;;;;;5.81;100.00;97390.85;109467;1269;40633;-85
2023/04/10 09:30:42;;;;;;;47.50;30.50;;;;;;;5.84;100.00;97391.33;109287;1270;22562;-86
2023/04/10 09:33:31;;;;;;;52.50;32.60;;;;;;;5.91;100.00;97390.89;109456;1269;22477;-86
2023/04/10 09:36:04;;;;;;;46.30;30.70;;;;;;;6.00;100.00;97387.03;109610;1265;22676;-86
2023/04/10 09:38:37;;;;;;;49.80;33.30;;;;;;;6.07;100.00;97386.26;109323;1270;51965;-86
2023/04/10 09:41:13;;;;;;;47.50;31.90;;;;;;;6.09;100.00;97389.18;109536;1269;23081;-86
2023/04/10 09:43:46;;;;;;;52.70;32.20;;;;;;;6.13;100.00;97386.06;109524;1269;22705;-88
2023/04/10 09:46:29;;;;;;;53.80;32.00;;;;;;;6.18;100.00;97386.34;109652;1267;22564;-85
2023/04/10 09:49:04;;;;;;;46.70;31.50;;;;;;;6.31;100.00;97383.79;109447;1266;79102;-86
2023/04/10 09:51:38;;;;;;;52.40;32.10;;;;;;;6.38;100.00;97386.86;109274;1270;22524;-94
2023/04/10 09:54:11;;;;;;;52.30;33.20;;;;;;;6.39;100.00;97389.02;109415;1265;22558;-83
2023/04/10 09:56:46;;;;;;;47.60;32.20;;;;;;;6.33;100.00;97389.70;109367;1269;22511;-85
2023/04/10 09:59:19;;;;;;;46.60;31.60;;;;;;;6.30;100.00;97392.63;109500;1265;50067;-87
2023/04/10 10:01:51;;;;;;;52.40;32.70;;;;;;;6.27;100.00;97389.89;109484;1269;22528;-88
2023/04/10 10:04:25;;;;;;;46.50;30.40;;;;;;;6.29;100.00;97390.55;109436;1266;25343;-88
2023/04/10 10:06:58;;;;;;;50.80;33.10;;;;;;;6.27;100.00;97384.06;109420;1265;22526;-88
2023/04/10 10:09:33;;;;;;;57.40;35.60;;;;;;;6.22;100.00;97380.95;109484;1263;48013;-87
2023/04/10 10:12:09;;;;;;;51.60;31.70;;;;;;;6.20;100.00;97382.39;109517;1262;22533;-87
2023/04/10 10:14:46;;;;;;;51.10;29.50;;;;;;;6.20;100.00;97379.02;109503;1267;22564;-88
2023/04/10 10:17:20;;;;;;;60.60;35.20;;;;;;;6.20;100.00;97378.20;109482;1263;23453;-88
2023/04/10 10:20:03;;;;;;;58.20;36.90;;;;;;;6.21;100.00;97374.91;109408;1266;22572;-87
2023/04/10 10:22:36;;;;;;;50.50;32.40;;;;;;;6.27;100.00;97375.40;109538;1265;23281;-88
2023/04/10 10:25:11;;;;;;;56.10;33.60;;;;;;;6.33;100.00;97375.04;109386;1270;22546;-87
2023/04/10 10:27:44;;;;;;;54.20;33.20;;;;;;;6.36;100.00;97375.73;109601;1265;66529;-88
2023/04/10 10:30:19;;;;;;;55.90;35.70;;;;;;;6.39;100.00;97377.13;109548;1270;23811;-87
2023/04/10 10:32:52;;;;;;;51.10;32.20;;;;;;;6.39;100.00;97377.23;109496;1264;25198;-88
2023/04/10 10:35:26;;;;;;;60.80;35.70;;;;;;;6.36;100.00;97370.61;109484;1269;22529;-87
2023/04/10 10:38:01;;;;;;;61.90;38.40;;;;;;;6.34;100.00;97373.97;109340;1266;96016;-87
2023/04/10 10:40:38;;;;;;;57.30;35.50;;;;;;;6.32;100.00;97366.45;109322;1271;23331;-87
2023/04/10 10:43:20;;;;;;;57.10;34.80;;;;;;;6.31;100.00;97366.89;109300;1263;23201;-88
2023/04/10 10:46:01;;;;;;;53.10;35.60;;;;;;;6.26;100.00;97369.55;109248;1271;22725;-88
2023/04/10 10:48:32;;;;;;;54.50;34.20;;;;;;;6.28;100.00;97368.42;109111;1266;52667;-87
2023/04/10 10:51:06;;;;;;;57.30;31.90;;;;;;;6.33;100.00;97357.98;109265;1267;24242;-88
2023/04/10 10:53:40;;;;;;;55.70;34.80;;;;;;;6.36;100.00;97356.53;109320;1264;22547;-87
2023/04/10 10:56:36;;;;;;;55.50;34.80;;;;;;;6.43;100.00;97358.14;109187;1271;22572;-87
2023/04/10 10:59:07;;;;;;;52.30;35.00;;;;;;;6.51;100.00;97357.10;109188;1271;55182;-87
2023/04/10 11:01:59;;;;;;;56.80;34.70;;;;;;;6.52;100.00;97357.81;109168;1265;22635;-88
2023/04/10 11:04:45;;;;;;;54.00;34.70;;;;;;;6.59;100.00;97353.30;109134;1271;22534;-87
2023/04/10 11:07:17;;;;;;;52.80;33.90;;;;;;;6.68;100.00;97349.10;109145;1271;22551;-88
2023/04/10 11:09:52;;;;;;;55.30;35.10;;;;;;;6.78;100.00;97344.37;109053;1268;102562;-87
2023/04/10 11:12:25;;;;;;;52.50;31.30;;;;;;;6.89;100.00;97337.62;109111;1265;22554;-87
2023/04/10 11:15:01;;;;;;;57.60;36.70;;;;;;;6.99;100.00;97334.75;109114;1264;22566;-87
2023/04/10 11:17:55;;;;;;;49.80;32.30;;;;;;;7.12;100.00;97335.91;109174;1263;37962;-86
2023/04/10 11:20:27;;;;;;;47.70;31.10;;;;;;;7.20;100.00;97335.15;109173;1264;22521;-88
2023/04/10 11:23:12;;;;;;;50.30;33.60;;;;;;;7.16;100.00;97332.45;109208;1265;22558;-87
2023/04/10 11:25:54;;;;;;;51.50;32.30;;;;;;;7.18;100.00;97328.33;109322;1271;22616;-87
2023/04/10 11:28:39;;;;;;;53.80;34.30;;;;;;;7.23;100.00;97329.35;109227;1271;46616;-87
2023/04/10 11:31:20;;;;;;;57.70;37.50;;;;;;;7.39;100.00;97323.70;109214;1265;22539;-86
2023/04/10 11:34:03;;;;;;;51.70;34.30;;;;;;;7.57;100.00;97317.64;109270;1268;22533;-87
2023/04/10 11:36:38;;;;;;;55.30;34.30;;;;;;;7.72;100.00;97313.69;109197;1271;22570;-86